sensor_id;sensor_type;location;lat;lon;timestamp;P1;durP1;ratioP1;P2;durP2;ratioP2
48795;SDS011;34607;48.520;-1.330;2022-10-16T00:01:06;4.65;;;1.48;;
48795;SDS011;34607;48.520;-1.330;2022-10-16T00:03:35;5.88;;;1.58;;
48795;SDS011;34607;48.520;-1.330;2022-10-16T00:06:02;3.65;;;1.38;;
48795;SDS011;34607;48.520;-1.330;2022-10-16T00:08:30;7.47;;;2.10;;
48795;SDS011;34607;48.520;-1.330;2022-10-16T00:11:01;5.75;;;1.30;;
48795;SDS011;34607;48.520;-1.330;2022-10-16T00:13:30;7.40;;;1.40;;
48795;SDS011;34607;48.520;-1.330;2022-10-16T00:15:57;3.00;;;1.73;;
48795;SDS011;34607;48.520;-1.330;2022-10-16T00:18:25;6.05;;;1.30;;
48795;SDS011;34607;48.520;-1.330;2022-10-16T00:20:54;8.07;;;1.58;;
48795;SDS011;34607;48.520;-1.330;2022-10-16T00:23:22;4.15;;;1.50;;
48795;SDS011;34607;48.520;-1.330;2022-10-16T00:25:55;5.50;;;2.40;;
48795;SDS011;34607;48.520;-1.330;2022-10-16T00:28:23;5.75;;;1.30;;
48795;SDS011;34607;48.520;-1.330;2022-10-16T00:30:50;3.92;;;1.27;;
48795;SDS011;34607;48.520;-1.330;2022-10-16T00:33:17;6.10;;;1.80;;
48795;SDS011;34607;48.520;-1.330;2022-10-16T00:35:44;5.25;;;1.33;;
48795;SDS011;34607;48.520;-1.330;2022-10-16T00:38:13;5.63;;;1.23;;
48795;SDS011;34607;48.520;-1.330;2022-10-16T00:40:40;2.90;;;1.55;;
48795;SDS011;34607;48.520;-1.330;2022-10-16T00:43:11;6.05;;;1.73;;
48795;SDS011;34607;48.520;-1.330;2022-10-16T00:45:40;5.88;;;1.85;;
48795;SDS011;34607;48.520;-1.330;2022-10-16T00:48:07;2.67;;;1.25;;
48795;SDS011;34607;48.520;-1.330;2022-10-16T00:50:40;6.18;;;1.50;;
48795;SDS011;34607;48.520;-1.330;2022-10-16T00:53:09;4.57;;;1.80;;
48795;SDS011;34607;48.520;-1.330;2022-10-16T00:55:38;3.83;;;1.70;;
48795;SDS011;34607;48.520;-1.330;2022-10-16T00:58:06;7.18;;;1.77;;
48795;SDS011;34607;48.520;-1.330;2022-10-16T01:00:33;11.10;;;2.38;;
48795;SDS011;34607;48.520;-1.330;2022-10-16T01:03:01;5.75;;;1.60;;
48795;SDS011;34607;48.520;-1.330;2022-10-16T01:05:31;9.18;;;1.80;;
48795;SDS011;34607;48.520;-1.330;2022-10-16T01:08:02;5.65;;;1.60;;
48795;SDS011;34607;48.520;-1.330;2022-10-16T01:10:35;9.35;;;2.00;;
48795;SDS011;34607;48.520;-1.330;2022-10-16T01:13:09;6.07;;;1.92;;
48795;SDS011;34607;48.520;-1.330;2022-10-16T01:15:42;6.78;;;2.58;;
48795;SDS011;34607;48.520;-1.330;2022-10-16T01:18:18;6.57;;;2.15;;
48795;SDS011;34607;48.520;-1.330;2022-10-16T01:20:52;2.75;;;1.85;;
48795;SDS011;34607;48.520;-1.330;2022-10-16T01:23:27;7.70;;;2.95;;
48795;SDS011;34607;48.520;-1.330;2022-10-16T01:26:10;5.53;;;2.60;;
48795;SDS011;34607;48.520;-1.330;2022-10-16T01:28:49;9.38;;;2.10;;
48795;SDS011;34607;48.520;-1.330;2022-10-16T01:31:22;5.38;;;2.60;;
48795;SDS011;34607;48.520;-1.330;2022-10-16T01:33:54;8.65;;;3.00;;
48795;SDS011;34607;48.520;-1.330;2022-10-16T01:36:26;9.82;;;2.70;;
48795;SDS011;34607;48.520;-1.330;2022-10-16T01:38:58;6.82;;;2.72;;
48795;SDS011;34607;48.520;-1.330;2022-10-16T01:41:30;8.70;;;3.15;;
48795;SDS011;34607;48.520;-1.330;2022-10-16T01:44:02;8.55;;;2.92;;
48795;SDS011;34607;48.520;-1.330;2022-10-16T01:46:33;6.32;;;2.78;;
48795;SDS011;34607;48.520;-1.330;2022-10-16T01:49:03;6.57;;;2.70;;
48795;SDS011;34607;48.520;-1.330;2022-10-16T01:51:32;7.45;;;3.42;;
48795;SDS011;34607;48.520;-1.330;2022-10-16T01:54:01;7.63;;;3.78;;
48795;SDS011;34607;48.520;-1.330;2022-10-16T01:56:31;12.57;;;3.95;;
48795;SDS011;34607;48.520;-1.330;2022-10-16T01:59:01;8.07;;;3.50;;
48795;SDS011;34607;48.520;-1.330;2022-10-16T02:01:33;11.32;;;3.75;;
48795;SDS011;34607;48.520;-1.330;2022-10-16T02:04:05;9.07;;;3.42;;
48795;SDS011;34607;48.520;-1.330;2022-10-16T02:06:35;9.00;;;4.22;;
48795;SDS011;34607;48.520;-1.330;2022-10-16T02:09:02;10.35;;;4.00;;
48795;SDS011;34607;48.520;-1.330;2022-10-16T02:11:29;10.65;;;3.67;;
48795;SDS011;34607;48.520;-1.330;2022-10-16T02:13:58;8.65;;;3.75;;
48795;SDS011;34607;48.520;-1.330;2022-10-16T02:16:34;9.68;;;4.07;;
48795;SDS011;34607;48.520;-1.330;2022-10-16T02:19:02;6.43;;;3.47;;
48795;SDS011;34607;48.520;-1.330;2022-10-16T02:21:32;9.90;;;4.40;;
48795;SDS011;34607;48.520;-1.330;2022-10-16T02:24:06;8.43;;;5.07;;
48795;SDS011;34607;48.520;-1.330;2022-10-16T02:26:40;6.88;;;4.35;;
48795;SDS011;34607;48.520;-1.330;2022-10-16T02:29:10;12.75;;;5.40;;
48795;SDS011;34607;48.520;-1.330;2022-10-16T02:31:43;12.98;;;4.68;;
48795;SDS011;34607;48.520;-1.330;2022-10-16T02:34:14;9.55;;;4.47;;
48795;SDS011;34607;48.520;-1.330;2022-10-16T02:36:44;9.40;;;4.70;;
48795;SDS011;34607;48.520;-1.330;2022-10-16T02:39:13;12.55;;;4.53;;
48795;SDS011;34607;48.520;-1.330;2022-10-16T02:41:41;8.73;;;4.63;;
48795;SDS011;34607;48.520;-1.330;2022-10-16T02:44:09;11.90;;;4.93;;
48795;SDS011;34607;48.520;-1.330;2022-10-16T02:46:36;12.00;;;5.35;;
48795;SDS011;34607;48.520;-1.330;2022-10-16T02:49:05;12.63;;;5.40;;
48795;SDS011;34607;48.520;-1.330;2022-10-16T02:51:32;12.80;;;5.25;;
48795;SDS011;34607;48.520;-1.330;2022-10-16T02:53:59;12.38;;;5.10;;
48795;SDS011;34607;48.520;-1.330;2022-10-16T02:56:26;12.00;;;4.97;;
48795;SDS011;34607;48.520;-1.330;2022-10-16T02:58:53;11.70;;;4.72;;
48795;SDS011;34607;48.520;-1.330;2022-10-16T03:01:20;13.40;;;4.90;;
48795;SDS011;34607;48.520;-1.330;2022-10-16T03:03:47;9.52;;;4.65;;
48795;SDS011;34607;48.520;-1.330;2022-10-16T03:06:16;10.02;;;4.82;;
48795;SDS011;34607;48.520;-1.330;2022-10-16T03:08:43;10.45;;;4.70;;
48795;SDS011;34607;48.520;-1.330;2022-10-16T03:11:10;11.25;;;5.13;;
48795;SDS011;34607;48.520;-1.330;2022-10-16T03:13:37;12.32;;;5.43;;
48795;SDS011;34607;48.520;-1.330;2022-10-16T03:16:04;11.10;;;4.90;;
48795;SDS011;34607;48.520;-1.330;2022-10-16T03:18:31;12.68;;;4.55;;
48795;SDS011;34607;48.520;-1.330;2022-10-16T03:20:58;12.65;;;4.90;;
48795;SDS011;34607;48.520;-1.330;2022-10-16T03:23:26;10.55;;;5.00;;
48795;SDS011;34607;48.520;-1.330;2022-10-16T03:25:54;8.68;;;4.22;;
48795;SDS011;34607;48.520;-1.330;2022-10-16T03:28:21;17.67;;;4.70;;
48795;SDS011;34607;48.520;-1.330;2022-10-16T03:30:48;15.85;;;4.65;;
48795;SDS011;34607;48.520;-1.330;2022-10-16T03:33:15;10.55;;;4.80;;
48795;SDS011;34607;48.520;-1.330;2022-10-16T03:35:42;11.18;;;5.05;;
48795;SDS011;34607;48.520;-1.330;2022-10-16T03:38:09;10.57;;;5.28;;
48795;SDS011;34607;48.520;-1.330;2022-10-16T03:40:37;13.15;;;5.22;;
48795;SDS011;34607;48.520;-1.330;2022-10-16T03:43:04;14.48;;;4.78;;
48795;SDS011;34607;48.520;-1.330;2022-10-16T03:45:31;11.18;;;4.72;;
48795;SDS011;34607;48.520;-1.330;2022-10-16T03:47:58;9.40;;;4.25;;
48795;SDS011;34607;48.520;-1.330;2022-10-16T03:50:25;13.48;;;4.47;;
48795;SDS011;34607;48.520;-1.330;2022-10-16T03:52:53;9.23;;;4.25;;
48795;SDS011;34607;48.520;-1.330;2022-10-16T03:55:20;11.73;;;4.05;;
48795;SDS011;34607;48.520;-1.330;2022-10-16T03:57:48;8.52;;;4.40;;
48795;SDS011;34607;48.520;-1.330;2022-10-16T04:00:15;10.25;;;4.97;;
48795;SDS011;34607;48.520;-1.330;2022-10-16T04:02:42;15.38;;;6.03;;
48795;SDS011;34607;48.520;-1.330;2022-10-16T04:05:09;14.60;;;5.60;;
48795;SDS011;34607;48.520;-1.330;2022-10-16T04:07:36;12.70;;;5.80;;
48795;SDS011;34607;48.520;-1.330;2022-10-16T04:10:03;16.88;;;5.72;;
48795;SDS011;34607;48.520;-1.330;2022-10-16T04:12:31;16.30;;;6.63;;
48795;SDS011;34607;48.520;-1.330;2022-10-16T04:15:00;10.38;;;5.53;;
48795;SDS011;34607;48.520;-1.330;2022-10-16T04:17:27;13.48;;;5.25;;
48795;SDS011;34607;48.520;-1.330;2022-10-16T04:19:54;12.68;;;5.18;;
48795;SDS011;34607;48.520;-1.330;2022-10-16T04:22:21;8.90;;;5.03;;
48795;SDS011;34607;48.520;-1.330;2022-10-16T04:24:48;13.95;;;6.93;;
48795;SDS011;34607;48.520;-1.330;2022-10-16T04:27:15;11.90;;;5.78;;
48795;SDS011;34607;48.520;-1.330;2022-10-16T04:29:42;8.68;;;5.13;;
48795;SDS011;34607;48.520;-1.330;2022-10-16T04:32:11;11.23;;;5.57;;
48795;SDS011;34607;48.520;-1.330;2022-10-16T04:34:38;15.82;;;5.60;;
48795;SDS011;34607;48.520;-1.330;2022-10-16T04:37:06;13.88;;;5.82;;
48795;SDS011;34607;48.520;-1.330;2022-10-16T04:39:33;13.75;;;5.25;;
48795;SDS011;34607;48.520;-1.330;2022-10-16T04:42:00;12.35;;;5.25;;
48795;SDS011;34607;48.520;-1.330;2022-10-16T04:44:27;14.13;;;5.38;;
48795;SDS011;34607;48.520;-1.330;2022-10-16T04:46:54;10.02;;;5.93;;
48795;SDS011;34607;48.520;-1.330;2022-10-16T04:49:23;12.82;;;6.93;;
48795;SDS011;34607;48.520;-1.330;2022-10-16T04:51:50;14.68;;;6.63;;
48795;SDS011;34607;48.520;-1.330;2022-10-16T04:54:17;14.23;;;6.45;;
48795;SDS011;34607;48.520;-1.330;2022-10-16T04:56:44;13.25;;;6.50;;
48795;SDS011;34607;48.520;-1.330;2022-10-16T04:59:13;10.15;;;5.28;;
48795;SDS011;34607;48.520;-1.330;2022-10-16T05:01:40;14.63;;;7.45;;
48795;SDS011;34607;48.520;-1.330;2022-10-16T05:04:07;11.00;;;5.85;;
48795;SDS011;34607;48.520;-1.330;2022-10-16T05:06:36;16.30;;;6.15;;
48795;SDS011;34607;48.520;-1.330;2022-10-16T05:09:04;15.05;;;5.45;;
48795;SDS011;34607;48.520;-1.330;2022-10-16T05:11:32;12.43;;;6.00;;
48795;SDS011;34607;48.520;-1.330;2022-10-16T05:13:59;12.55;;;5.90;;
48795;SDS011;34607;48.520;-1.330;2022-10-16T05:16:27;11.68;;;5.28;;
48795;SDS011;34607;48.520;-1.330;2022-10-16T05:18:54;14.38;;;5.45;;
48795;SDS011;34607;48.520;-1.330;2022-10-16T05:21:21;13.43;;;5.47;;
48795;SDS011;34607;48.520;-1.330;2022-10-16T05:23:50;10.27;;;5.32;;
48795;SDS011;34607;48.520;-1.330;2022-10-16T05:26:19;11.98;;;5.90;;
48795;SDS011;34607;48.520;-1.330;2022-10-16T05:28:46;13.15;;;5.65;;
48795;SDS011;34607;48.520;-1.330;2022-10-16T05:31:13;11.95;;;5.15;;
48795;SDS011;34607;48.520;-1.330;2022-10-16T05:33:40;17.33;;;5.57;;
48795;SDS011;34607;48.520;-1.330;2022-10-16T05:36:08;14.38;;;5.30;;
48795;SDS011;34607;48.520;-1.330;2022-10-16T05:38:36;11.55;;;5.18;;
48795;SDS011;34607;48.520;-1.330;2022-10-16T05:41:05;10.27;;;5.03;;
48795;SDS011;34607;48.520;-1.330;2022-10-16T05:43:32;9.73;;;4.63;;
48795;SDS011;34607;48.520;-1.330;2022-10-16T05:45:59;9.23;;;5.03;;
48795;SDS011;34607;48.520;-1.330;2022-10-16T05:48:29;14.40;;;5.47;;
48795;SDS011;34607;48.520;-1.330;2022-10-16T05:50:57;13.90;;;5.88;;
48795;SDS011;34607;48.520;-1.330;2022-10-16T05:53:26;10.30;;;5.32;;
48795;SDS011;34607;48.520;-1.330;2022-10-16T05:55:55;7.65;;;4.97;;
48795;SDS011;34607;48.520;-1.330;2022-10-16T05:58:24;12.98;;;5.53;;
48795;SDS011;34607;48.520;-1.330;2022-10-16T06:00:55;16.33;;;4.78;;
48795;SDS011;34607;48.520;-1.330;2022-10-16T06:03:23;12.65;;;4.82;;
48795;SDS011;34607;48.520;-1.330;2022-10-16T06:05:50;12.43;;;4.97;;
48795;SDS011;34607;48.520;-1.330;2022-10-16T06:08:17;13.15;;;5.95;;
48795;SDS011;34607;48.520;-1.330;2022-10-16T06:10:45;8.98;;;4.97;;
48795;SDS011;34607;48.520;-1.330;2022-10-16T06:13:13;14.55;;;4.85;;
48795;SDS011;34607;48.520;-1.330;2022-10-16T06:15:42;9.82;;;5.07;;
48795;SDS011;34607;48.520;-1.330;2022-10-16T06:18:09;8.80;;;4.57;;
48795;SDS011;34607;48.520;-1.330;2022-10-16T06:20:36;13.48;;;4.60;;
48795;SDS011;34607;48.520;-1.330;2022-10-16T06:23:04;16.98;;;5.28;;
48795;SDS011;34607;48.520;-1.330;2022-10-16T06:25:31;19.92;;;7.05;;
48795;SDS011;34607;48.520;-1.330;2022-10-16T06:27:58;14.80;;;6.00;;
48795;SDS011;34607;48.520;-1.330;2022-10-16T06:30:25;9.30;;;4.22;;
48795;SDS011;34607;48.520;-1.330;2022-10-16T06:32:54;13.32;;;5.28;;
48795;SDS011;34607;48.520;-1.330;2022-10-16T06:35:21;10.50;;;5.43;;
48795;SDS011;34607;48.520;-1.330;2022-10-16T06:37:49;17.77;;;5.97;;
48795;SDS011;34607;48.520;-1.330;2022-10-16T06:40:16;9.13;;;4.47;;
48795;SDS011;34607;48.520;-1.330;2022-10-16T06:42:43;11.93;;;4.57;;
48795;SDS011;34607;48.520;-1.330;2022-10-16T06:45:10;14.40;;;5.32;;
48795;SDS011;34607;48.520;-1.330;2022-10-16T06:47:37;15.70;;;4.75;;
48795;SDS011;34607;48.520;-1.330;2022-10-16T06:50:06;14.98;;;5.50;;
48795;SDS011;34607;48.520;-1.330;2022-10-16T06:52:34;12.43;;;5.50;;
48795;SDS011;34607;48.520;-1.330;2022-10-16T06:55:01;17.58;;;5.35;;
48795;SDS011;34607;48.520;-1.330;2022-10-16T06:57:28;10.77;;;5.07;;
48795;SDS011;34607;48.520;-1.330;2022-10-16T06:59:55;15.27;;;5.85;;
48795;SDS011;34607;48.520;-1.330;2022-10-16T07:02:22;14.20;;;5.43;;
48795;SDS011;34607;48.520;-1.330;2022-10-16T07:04:50;14.15;;;5.75;;
48795;SDS011;34607;48.520;-1.330;2022-10-16T07:07:18;15.00;;;6.90;;
48795;SDS011;34607;48.520;-1.330;2022-10-16T07:09:45;14.25;;;6.03;;
48795;SDS011;34607;48.520;-1.330;2022-10-16T07:12:12;12.55;;;6.30;;
48795;SDS011;34607;48.520;-1.330;2022-10-16T07:14:39;10.85;;;4.90;;
48795;SDS011;34607;48.520;-1.330;2022-10-16T07:17:06;13.88;;;7.93;;
48795;SDS011;34607;48.520;-1.330;2022-10-16T07:19:33;18.70;;;9.73;;
48795;SDS011;34607;48.520;-1.330;2022-10-16T07:22:01;14.90;;;5.82;;
48795;SDS011;34607;48.520;-1.330;2022-10-16T07:24:29;13.90;;;5.22;;
48795;SDS011;34607;48.520;-1.330;2022-10-16T07:26:56;11.80;;;5.32;;
48795;SDS011;34607;48.520;-1.330;2022-10-16T07:29:23;10.02;;;5.15;;
48795;SDS011;34607;48.520;-1.330;2022-10-16T07:31:50;12.85;;;5.38;;
48795;SDS011;34607;48.520;-1.330;2022-10-16T07:34:18;14.13;;;5.82;;
48795;SDS011;34607;48.520;-1.330;2022-10-16T07:36:47;11.20;;;6.97;;
48795;SDS011;34607;48.520;-1.330;2022-10-16T07:39:15;8.95;;;5.45;;
48795;SDS011;34607;48.520;-1.330;2022-10-16T07:41:43;10.43;;;6.07;;
48795;SDS011;34607;48.520;-1.330;2022-10-16T07:44:10;9.52;;;5.13;;
48795;SDS011;34607;48.520;-1.330;2022-10-16T07:46:37;9.30;;;5.72;;
48795;SDS011;34607;48.520;-1.330;2022-10-16T07:49:04;14.80;;;9.23;;
48795;SDS011;34607;48.520;-1.330;2022-10-16T07:51:31;10.82;;;6.82;;
48795;SDS011;34607;48.520;-1.330;2022-10-16T07:53:59;10.13;;;5.22;;
48795;SDS011;34607;48.520;-1.330;2022-10-16T07:56:27;13.18;;;6.07;;
48795;SDS011;34607;48.520;-1.330;2022-10-16T07:58:55;9.10;;;5.70;;
48795;SDS011;34607;48.520;-1.330;2022-10-16T08:01:22;11.80;;;5.97;;
48795;SDS011;34607;48.520;-1.330;2022-10-16T08:03:50;10.05;;;6.10;;
48795;SDS011;34607;48.520;-1.330;2022-10-16T08:06:18;15.73;;;5.60;;
48795;SDS011;34607;48.520;-1.330;2022-10-16T08:08:47;10.95;;;6.65;;
48795;SDS011;34607;48.520;-1.330;2022-10-16T08:11:14;9.10;;;5.97;;
48795;SDS011;34607;48.520;-1.330;2022-10-16T08:13:42;14.73;;;6.90;;
48795;SDS011;34607;48.520;-1.330;2022-10-16T08:16:10;13.38;;;7.10;;
48795;SDS011;34607;48.520;-1.330;2022-10-16T08:18:38;10.52;;;7.05;;
48795;SDS011;34607;48.520;-1.330;2022-10-16T08:21:06;11.57;;;6.93;;
48795;SDS011;34607;48.520;-1.330;2022-10-16T08:23:34;11.55;;;7.68;;
48795;SDS011;34607;48.520;-1.330;2022-10-16T08:26:02;13.70;;;8.32;;
48795;SDS011;34607;48.520;-1.330;2022-10-16T08:28:31;15.75;;;7.70;;
48795;SDS011;34607;48.520;-1.330;2022-10-16T08:31:04;13.90;;;7.50;;
48795;SDS011;34607;48.520;-1.330;2022-10-16T08:33:34;13.52;;;7.63;;
48795;SDS011;34607;48.520;-1.330;2022-10-16T08:36:02;14.70;;;8.55;;
48795;SDS011;34607;48.520;-1.330;2022-10-16T08:38:30;13.88;;;8.00;;
48795;SDS011;34607;48.520;-1.330;2022-10-16T08:40:59;17.15;;;8.68;;
48795;SDS011;34607;48.520;-1.330;2022-10-16T08:43:44;14.60;;;8.07;;
48795;SDS011;34607;48.520;-1.330;2022-10-16T08:46:28;12.13;;;7.72;;
48795;SDS011;34607;48.520;-1.330;2022-10-16T08:49:07;13.93;;;7.40;;
48795;SDS011;34607;48.520;-1.330;2022-10-16T08:51:38;11.80;;;6.85;;
48795;SDS011;34607;48.520;-1.330;2022-10-16T08:54:11;15.05;;;7.72;;
48795;SDS011;34607;48.520;-1.330;2022-10-16T08:56:47;11.80;;;7.05;;
48795;SDS011;34607;48.520;-1.330;2022-10-16T08:59:15;9.20;;;6.63;;
48795;SDS011;34607;48.520;-1.330;2022-10-16T09:01:44;11.20;;;6.57;;
48795;SDS011;34607;48.520;-1.330;2022-10-16T09:10:00;9.20;;;6.30;;
48795;SDS011;34607;48.520;-1.330;2022-10-16T09:12:39;11.52;;;6.15;;
48795;SDS011;34607;48.520;-1.330;2022-10-16T09:15:14;9.73;;;5.93;;
48795;SDS011;34607;48.520;-1.330;2022-10-16T09:17:52;10.02;;;5.38;;
48795;SDS011;34607;48.520;-1.330;2022-10-16T09:20:29;10.27;;;5.63;;
48795;SDS011;34607;48.520;-1.330;2022-10-16T09:23:10;9.65;;;5.15;;
48795;SDS011;34607;48.520;-1.330;2022-10-16T09:25:43;9.90;;;5.13;;
48795;SDS011;34607;48.520;-1.330;2022-10-16T09:28:13;9.63;;;5.15;;
48795;SDS011;34607;48.520;-1.330;2022-10-16T09:30:40;9.05;;;4.63;;
48795;SDS011;34607;48.520;-1.330;2022-10-16T09:33:07;8.95;;;5.25;;
48795;SDS011;34607;48.520;-1.330;2022-10-16T09:35:37;9.02;;;5.53;;
48795;SDS011;34607;48.520;-1.330;2022-10-16T09:38:06;14.07;;;5.85;;
48795;SDS011;34607;48.520;-1.330;2022-10-16T09:40:36;14.38;;;8.48;;
48795;SDS011;34607;48.520;-1.330;2022-10-16T09:43:10;8.75;;;6.30;;
48795;SDS011;34607;48.520;-1.330;2022-10-16T09:45:53;11.05;;;7.35;;
48795;SDS011;34607;48.520;-1.330;2022-10-16T09:48:21;10.40;;;7.28;;
48795;SDS011;34607;48.520;-1.330;2022-10-16T09:50:55;14.82;;;8.68;;
48795;SDS011;34607;48.520;-1.330;2022-10-16T09:53:23;11.77;;;7.55;;
48795;SDS011;34607;48.520;-1.330;2022-10-16T09:55:52;11.23;;;6.93;;
48795;SDS011;34607;48.520;-1.330;2022-10-16T09:58:21;10.88;;;6.88;;
48795;SDS011;34607;48.520;-1.330;2022-10-16T10:00:50;11.80;;;6.13;;
48795;SDS011;34607;48.520;-1.330;2022-10-16T10:06:05;10.48;;;8.68;;
48795;SDS011;34607;48.520;-1.330;2022-10-16T10:08:56;9.15;;;6.30;;
48795;SDS011;34607;48.520;-1.330;2022-10-16T10:14:13;9.02;;;6.53;;
48795;SDS011;34607;48.520;-1.330;2022-10-16T10:17:06;6.00;;;4.87;;
48795;SDS011;34607;48.520;-1.330;2022-10-16T10:19:37;8.85;;;5.85;;
48795;SDS011;34607;48.520;-1.330;2022-10-16T10:22:13;8.00;;;5.05;;
48795;SDS011;34607;48.520;-1.330;2022-10-16T10:24:43;9.57;;;5.28;;
48795;SDS011;34607;48.520;-1.330;2022-10-16T10:27:13;11.55;;;6.53;;
48795;SDS011;34607;48.520;-1.330;2022-10-16T10:29:46;8.80;;;4.82;;
48795;SDS011;34607;48.520;-1.330;2022-10-16T10:32:25;7.53;;;5.18;;
48795;SDS011;34607;48.520;-1.330;2022-10-16T10:35:04;5.88;;;4.70;;
48795;SDS011;34607;48.520;-1.330;2022-10-16T10:37:51;4.93;;;4.00;;
48795;SDS011;34607;48.520;-1.330;2022-10-16T10:40:36;7.32;;;3.20;;
48795;SDS011;34607;48.520;-1.330;2022-10-16T10:43:16;6.70;;;3.50;;
48795;SDS011;34607;48.520;-1.330;2022-10-16T10:45:56;4.85;;;3.22;;
48795;SDS011;34607;48.520;-1.330;2022-10-16T10:48:34;12.53;;;7.20;;
48795;SDS011;34607;48.520;-1.330;2022-10-16T10:51:15;8.30;;;4.20;;
48795;SDS011;34607;48.520;-1.330;2022-10-16T10:53:52;7.90;;;4.10;;
48795;SDS011;34607;48.520;-1.330;2022-10-16T10:56:39;11.70;;;6.57;;
48795;SDS011;34607;48.520;-1.330;2022-10-16T11:02:18;7.68;;;3.97;;
48795;SDS011;34607;48.520;-1.330;2022-10-16T11:07:49;10.35;;;5.85;;
48795;SDS011;34607;48.520;-1.330;2022-10-16T11:10:21;18.50;;;7.80;;
48795;SDS011;34607;48.520;-1.330;2022-10-16T11:12:52;12.20;;;5.45;;
48795;SDS011;34607;48.520;-1.330;2022-10-16T11:15:27;6.65;;;4.03;;
48795;SDS011;34607;48.520;-1.330;2022-10-16T11:18:00;9.27;;;5.93;;
48795;SDS011;34607;48.520;-1.330;2022-10-16T11:20:32;12.20;;;5.03;;
48795;SDS011;34607;48.520;-1.330;2022-10-16T11:23:05;8.70;;;6.05;;
48795;SDS011;34607;48.520;-1.330;2022-10-16T11:25:41;7.50;;;3.97;;
48795;SDS011;34607;48.520;-1.330;2022-10-16T11:28:11;9.57;;;4.13;;
48795;SDS011;34607;48.520;-1.330;2022-10-16T11:30:43;6.82;;;3.90;;
48795;SDS011;34607;48.520;-1.330;2022-10-16T11:35:51;7.25;;;2.70;;
48795;SDS011;34607;48.520;-1.330;2022-10-16T11:40:57;6.88;;;3.20;;
48795;SDS011;34607;48.520;-1.330;2022-10-16T11:43:28;4.63;;;2.78;;
48795;SDS011;34607;48.520;-1.330;2022-10-16T11:46:02;5.65;;;3.08;;
48795;SDS011;34607;48.520;-1.330;2022-10-16T11:48:35;13.68;;;5.53;;
48795;SDS011;34607;48.520;-1.330;2022-10-16T11:51:09;8.88;;;4.43;;
48795;SDS011;34607;48.520;-1.330;2022-10-16T11:53:44;11.00;;;6.78;;
48795;SDS011;34607;48.520;-1.330;2022-10-16T11:56:16;8.53;;;3.27;;
48795;SDS011;34607;48.520;-1.330;2022-10-16T11:58:48;11.00;;;3.90;;
48795;SDS011;34607;48.520;-1.330;2022-10-16T12:01:25;7.32;;;3.28;;
48795;SDS011;34607;48.520;-1.330;2022-10-16T12:04:00;6.53;;;3.45;;
48795;SDS011;34607;48.520;-1.330;2022-10-16T12:06:34;9.20;;;3.85;;
48795;SDS011;34607;48.520;-1.330;2022-10-16T12:09:05;10.32;;;5.00;;
48795;SDS011;34607;48.520;-1.330;2022-10-16T12:11:39;4.97;;;2.88;;
48795;SDS011;34607;48.520;-1.330;2022-10-16T12:14:16;13.50;;;5.82;;
48795;SDS011;34607;48.520;-1.330;2022-10-16T12:17:00;16.95;;;8.98;;
48795;SDS011;34607;48.520;-1.330;2022-10-16T12:19:31;22.20;;;10.82;;
48795;SDS011;34607;48.520;-1.330;2022-10-16T12:21:59;9.65;;;5.60;;
48795;SDS011;34607;48.520;-1.330;2022-10-16T12:24:32;7.57;;;4.50;;
48795;SDS011;34607;48.520;-1.330;2022-10-16T12:27:02;7.80;;;5.32;;
48795;SDS011;34607;48.520;-1.330;2022-10-16T12:29:32;7.93;;;4.85;;
48795;SDS011;34607;48.520;-1.330;2022-10-16T12:32:05;11.98;;;5.75;;
48795;SDS011;34607;48.520;-1.330;2022-10-16T12:34:48;7.78;;;4.53;;
48795;SDS011;34607;48.520;-1.330;2022-10-16T12:37:19;4.72;;;3.42;;
48795;SDS011;34607;48.520;-1.330;2022-10-16T12:39:50;8.95;;;3.78;;
48795;SDS011;34607;48.520;-1.330;2022-10-16T12:42:21;6.60;;;2.97;;
48795;SDS011;34607;48.520;-1.330;2022-10-16T12:44:50;7.72;;;3.85;;
48795;SDS011;34607;48.520;-1.330;2022-10-16T12:47:23;4.38;;;2.85;;
48795;SDS011;34607;48.520;-1.330;2022-10-16T12:50:02;4.15;;;2.42;;
48795;SDS011;34607;48.520;-1.330;2022-10-16T12:52:34;7.10;;;3.55;;
48795;SDS011;34607;48.520;-1.330;2022-10-16T12:55:04;4.43;;;3.15;;
48795;SDS011;34607;48.520;-1.330;2022-10-16T12:57:45;3.33;;;1.88;;
48795;SDS011;34607;48.520;-1.330;2022-10-16T13:00:32;5.75;;;4.55;;
48795;SDS011;34607;48.520;-1.330;2022-10-16T13:06:12;3.08;;;2.17;;
48795;SDS011;34607;48.520;-1.330;2022-10-16T13:08:50;3.63;;;1.80;;
48795;SDS011;34607;48.520;-1.330;2022-10-16T13:11:32;3.40;;;2.22;;
48795;SDS011;34607;48.520;-1.330;2022-10-16T13:14:23;3.72;;;2.88;;
48795;SDS011;34607;48.520;-1.330;2022-10-16T13:17:10;3.50;;;1.80;;
48795;SDS011;34607;48.520;-1.330;2022-10-16T13:19:44;7.53;;;2.35;;
48795;SDS011;34607;48.520;-1.330;2022-10-16T13:22:21;3.65;;;2.00;;
48795;SDS011;34607;48.520;-1.330;2022-10-16T13:24:58;6.13;;;1.75;;
48795;SDS011;34607;48.520;-1.330;2022-10-16T13:27:38;3.50;;;1.75;;
48795;SDS011;34607;48.520;-1.330;2022-10-16T13:30:12;4.10;;;2.03;;
48795;SDS011;34607;48.520;-1.330;2022-10-16T13:32:45;3.38;;;2.10;;
48795;SDS011;34607;48.520;-1.330;2022-10-16T13:35:21;2.00;;;1.75;;
48795;SDS011;34607;48.520;-1.330;2022-10-16T13:38:02;4.75;;;1.70;;
48795;SDS011;34607;48.520;-1.330;2022-10-16T13:40:30;3.72;;;2.20;;
48795;SDS011;34607;48.520;-1.330;2022-10-16T13:42:59;2.55;;;2.13;;
48795;SDS011;34607;48.520;-1.330;2022-10-16T13:45:27;5.50;;;2.03;;
48795;SDS011;34607;48.520;-1.330;2022-10-16T13:48:01;2.83;;;1.98;;
48795;SDS011;34607;48.520;-1.330;2022-10-16T13:50:29;3.88;;;1.80;;
48795;SDS011;34607;48.520;-1.330;2022-10-16T13:53:07;9.45;;;2.75;;
48795;SDS011;34607;48.520;-1.330;2022-10-16T13:55:40;2.33;;;1.63;;
48795;SDS011;34607;48.520;-1.330;2022-10-16T13:58:07;4.03;;;1.55;;
48795;SDS011;34607;48.520;-1.330;2022-10-16T14:00:38;2.85;;;1.42;;
48795;SDS011;34607;48.520;-1.330;2022-10-16T14:03:07;2.47;;;1.42;;
48795;SDS011;34607;48.520;-1.330;2022-10-16T14:05:41;4.68;;;1.73;;
48795;SDS011;34607;48.520;-1.330;2022-10-16T14:08:15;3.15;;;1.73;;
48795;SDS011;34607;48.520;-1.330;2022-10-16T14:10:42;1.65;;;1.42;;
48795;SDS011;34607;48.520;-1.330;2022-10-16T14:13:15;3.75;;;1.58;;
48795;SDS011;34607;48.520;-1.330;2022-10-16T14:15:46;4.30;;;2.35;;
48795;SDS011;34607;48.520;-1.330;2022-10-16T14:18:17;3.40;;;2.00;;
48795;SDS011;34607;48.520;-1.330;2022-10-16T14:20:46;3.53;;;2.10;;
48795;SDS011;34607;48.520;-1.330;2022-10-16T14:23:23;5.90;;;2.75;;
48795;SDS011;34607;48.520;-1.330;2022-10-16T14:26:05;5.00;;;2.47;;
48795;SDS011;34607;48.520;-1.330;2022-10-16T14:28:39;6.60;;;3.20;;
48795;SDS011;34607;48.520;-1.330;2022-10-16T14:31:19;4.80;;;2.20;;
48795;SDS011;34607;48.520;-1.330;2022-10-16T14:33:53;6.22;;;3.15;;
48795;SDS011;34607;48.520;-1.330;2022-10-16T14:36:21;4.53;;;2.30;;
48795;SDS011;34607;48.520;-1.330;2022-10-16T14:38:54;4.65;;;1.90;;
48795;SDS011;34607;48.520;-1.330;2022-10-16T14:41:25;9.15;;;5.40;;
48795;SDS011;34607;48.520;-1.330;2022-10-16T14:43:53;7.25;;;4.38;;
48795;SDS011;34607;48.520;-1.330;2022-10-16T14:46:23;4.63;;;3.42;;
48795;SDS011;34607;48.520;-1.330;2022-10-16T14:48:59;4.63;;;2.53;;
48795;SDS011;34607;48.520;-1.330;2022-10-16T14:51:30;7.45;;;2.40;;
48795;SDS011;34607;48.520;-1.330;2022-10-16T14:53:58;3.92;;;3.33;;
48795;SDS011;34607;48.520;-1.330;2022-10-16T14:56:29;4.25;;;2.20;;
48795;SDS011;34607;48.520;-1.330;2022-10-16T14:58:59;4.40;;;2.40;;
48795;SDS011;34607;48.520;-1.330;2022-10-16T15:01:27;3.60;;;2.70;;
48795;SDS011;34607;48.520;-1.330;2022-10-16T15:03:54;3.92;;;2.80;;
48795;SDS011;34607;48.520;-1.330;2022-10-16T15:06:21;4.97;;;2.45;;
48795;SDS011;34607;48.520;-1.330;2022-10-16T15:08:48;3.90;;;2.83;;
48795;SDS011;34607;48.520;-1.330;2022-10-16T15:11:17;3.97;;;2.60;;
48795;SDS011;34607;48.520;-1.330;2022-10-16T15:13:45;3.40;;;2.40;;